createdAt,value
2022-12-27T00:00:35.575Z,60.75
2022-12-27T00:03:02.735Z,51.10
2022-12-27T00:05:30.441Z,52.47
2022-12-27T00:07:58.731Z,49.55
2022-12-27T00:10:27.097Z,46.47
2022-12-27T00:12:54.210Z,49.40
2022-12-27T00:15:21.466Z,43.38
2022-12-27T00:17:48.583Z,45.17
2022-12-27T00:20:15.618Z,43.65
2022-12-27T00:22:42.981Z,52.72
2022-12-27T00:25:11.458Z,51.42
2022-12-27T00:27:38.812Z,49.05
2022-12-27T00:30:07.147Z,44.42
2022-12-27T00:32:34.406Z,49.60
2022-12-27T00:35:01.438Z,50.33
2022-12-27T00:37:28.412Z,52.05
2022-12-27T00:39:55.339Z,53.42
2022-12-27T00:42:24.727Z,57.13
2022-12-27T00:44:51.733Z,59.15
2022-12-27T00:47:18.663Z,48.03
2022-12-27T00:49:48.612Z,43.38
2022-12-27T00:52:15.853Z,43.85
2022-12-27T00:54:42.815Z,48.15
2022-12-27T00:57:09.801Z,38.78
2022-12-27T00:59:38.275Z,41.60
2022-12-27T01:02:05.481Z,39.63
2022-12-27T01:04:32.589Z,42.63
2022-12-27T01:06:59.514Z,45.35
2022-12-27T01:09:26.560Z,47.65
2022-12-27T01:11:53.533Z,48.60
2022-12-27T01:14:20.537Z,43.20
2022-12-27T01:16:48.897Z,44.25
2022-12-27T01:19:16.083Z,49.15
2022-12-27T01:21:43.029Z,43.65
2022-12-27T01:24:09.950Z,47.10
2022-12-27T01:26:36.976Z,45.20
2022-12-27T01:29:05.980Z,47.40
2022-12-27T01:31:32.987Z,51.47
2022-12-27T01:34:01.846Z,43.05
2022-12-27T01:36:31.539Z,46.17
2022-12-27T01:38:59.701Z,49.83
2022-12-27T01:41:47.049Z,52.08
2022-12-27T01:44:51.291Z,47.13
2022-12-27T01:47:29.559Z,42.47
2022-12-27T01:50:05.483Z,42.97
2022-12-27T01:52:35.663Z,41.63
2022-12-27T01:55:09.680Z,38.90
2022-12-27T01:57:37.168Z,35.40
2022-12-27T02:00:05.350Z,42.50
2022-12-27T02:02:33.147Z,50.28
2022-12-27T02:05:01.951Z,37.03
2022-12-27T02:07:38.610Z,36.50
2022-12-27T02:10:06.374Z,45.40
2022-12-27T02:12:33.961Z,39.67
2022-12-27T02:15:03.320Z,35.90
2022-12-27T02:17:32.580Z,34.35
2022-12-27T02:20:07.160Z,44.65
2022-12-27T02:23:24.193Z,39.33
2022-12-27T02:26:32.597Z,38.67
2022-12-27T02:29:17.746Z,36.35
2022-12-27T02:31:52.335Z,38.17
2022-12-27T02:34:25.586Z,32.30
2022-12-27T02:36:58.042Z,34.45
2022-12-27T02:39:26.506Z,33.97
2022-12-27T02:42:13.770Z,30.77
2022-12-27T02:45:17.771Z,26.02
2022-12-27T02:48:05.625Z,27.48
2022-12-27T02:51:00.742Z,26.17
2022-12-27T02:53:41.899Z,21.40
2022-12-27T02:56:37.777Z,24.17
2022-12-27T02:59:18.585Z,27.10
2022-12-27T03:02:16.998Z,27.52
2022-12-27T03:05:03.591Z,30.13
2022-12-27T03:07:39.187Z,27.30
2022-12-27T03:10:36.803Z,27.25
2022-12-27T03:13:34.824Z,26.05
2022-12-27T03:16:11.657Z,29.15
2022-12-27T03:18:51.360Z,32.08
2022-12-27T03:21:42.577Z,24.35
2022-12-27T03:24:40.368Z,27.27
2022-12-27T03:27:18.234Z,34.22
2022-12-27T03:30:09.604Z,26.85
2022-12-27T03:33:00.579Z,37.25
2022-12-27T03:35:29.951Z,30.65
2022-12-27T03:38:05.714Z,40.60
2022-12-27T03:41:01.703Z,29.75
2022-12-27T03:43:29.015Z,34.60
2022-12-27T03:46:23.467Z,35.28
2022-12-27T03:49:03.958Z,34.72
2022-12-27T03:51:37.389Z,30.33
2022-12-27T03:54:09.048Z,31.55
2022-12-27T03:56:37.206Z,35.58
2022-12-27T03:59:05.423Z,32.33
2022-12-27T04:01:32.427Z,31.63
2022-12-27T04:03:59.497Z,38.60
2022-12-27T04:06:26.481Z,36.47
2022-12-27T04:09:14.051Z,34.00
2022-12-27T04:11:59.399Z,34.67
2022-12-27T04:14:44.801Z,40.22
2022-12-27T04:17:29.921Z,32.53
2022-12-27T04:20:15.691Z,35.25
2022-12-27T04:23:01.566Z,36.30
2022-12-27T04:25:48.897Z,31.02
2022-12-27T04:28:34.117Z,34.42
2022-12-27T04:31:20.260Z,25.02
2022-12-27T04:34:05.443Z,21.30
2022-12-27T04:36:32.356Z,18.58
2022-12-27T04:38:59.319Z,23.70
2022-12-27T04:41:46.467Z,16.65
2022-12-27T04:44:31.926Z,17.90
2022-12-27T04:47:17.754Z,18.85
2022-12-27T04:50:03.469Z,20.25
2022-12-27T04:55:20.804Z,23.73
2022-12-27T04:57:51.066Z,17.73
2022-12-27T05:00:37.745Z,16.40
2022-12-27T05:03:07.391Z,27.60
2022-12-27T05:05:35.819Z,15.40
2022-12-27T05:08:22.217Z,14.57
2022-12-27T05:11:08.346Z,18.85
2022-12-27T05:18:49.492Z,11.18
2022-12-27T05:21:16.440Z,15.13
2022-12-27T05:24:05.425Z,11.63
2022-12-27T05:26:33.375Z,12.15
2022-12-27T05:29:02.364Z,10.95
2022-12-27T05:31:29.823Z,12.85
2022-12-27T05:33:57.789Z,13.35
2022-12-27T05:36:25.418Z,11.85
2022-12-27T05:38:52.719Z,10.25
2022-12-27T05:41:19.873Z,15.02
2022-12-27T05:43:46.875Z,17.20
2022-12-27T05:46:17.363Z,13.10
2022-12-27T05:48:45.187Z,19.40
2022-12-27T05:51:15.248Z,25.25
2022-12-27T05:53:42.297Z,18.95
2022-12-27T05:56:11.846Z,16.10
2022-12-27T05:58:39.511Z,13.43
2022-12-27T06:01:09.346Z,11.15
2022-12-27T06:03:38.007Z,18.67
2022-12-27T06:06:07.863Z,15.95
2022-12-27T06:08:35.875Z,21.05
2022-12-27T06:11:05.548Z,18.15
2022-12-27T06:13:32.812Z,19.85
2022-12-27T06:16:01.306Z,9.45
2022-12-27T06:18:30.348Z,8.48
2022-12-27T06:21:03.062Z,9.48
2022-12-27T06:23:30.122Z,10.73
2022-12-27T06:25:57.067Z,13.38
2022-12-27T06:28:24.122Z,11.88
2022-12-27T06:30:51.049Z,12.88
2022-12-27T06:33:18.011Z,8.15
2022-12-27T06:35:45.092Z,11.52
2022-12-27T06:38:13.388Z,9.95
2022-12-27T06:40:40.321Z,9.48
2022-12-27T06:43:07.307Z,9.40
2022-12-27T06:45:34.423Z,8.68
2022-12-27T06:48:01.435Z,12.35
2022-12-27T06:50:29.379Z,7.60
2022-12-27T06:52:56.796Z,8.10
2022-12-27T06:55:27.709Z,12.95
2022-12-27T06:57:54.773Z,8.35
2022-12-27T07:00:21.941Z,10.15
2022-12-27T07:02:49.200Z,9.43
2022-12-27T07:05:18.616Z,7.85
2022-12-27T07:07:45.572Z,8.75
2022-12-27T07:10:12.495Z,7.78
2022-12-27T07:12:40.817Z,7.57
2022-12-27T07:15:09.587Z,6.80
2022-12-27T07:17:36.871Z,6.90
2022-12-27T07:20:04.396Z,6.20
2022-12-27T07:22:31.593Z,6.15
2022-12-27T07:24:58.639Z,10.98
2022-12-27T07:27:25.823Z,10.07
2022-12-27T07:29:54.159Z,7.57
2022-12-27T07:32:24.201Z,6.80
2022-12-27T07:34:51.171Z,9.90
2022-12-27T07:37:18.176Z,9.27
2022-12-27T07:39:45.428Z,10.70
2022-12-27T07:42:12.944Z,5.68
2022-12-27T07:44:39.892Z,6.43
2022-12-27T07:47:08.328Z,6.60
2022-12-27T07:49:35.260Z,4.93
2022-12-27T07:52:02.513Z,5.20
2022-12-27T07:54:29.472Z,6.35
2022-12-27T07:56:56.454Z,4.85
2022-12-27T07:59:23.431Z,5.43
2022-12-27T08:02:05.739Z,5.10
2022-12-27T08:04:37.155Z,8.35
2022-12-27T08:07:07.921Z,5.43
2022-12-27T08:09:39.192Z,5.65
2022-12-27T08:12:07.193Z,4.97
2022-12-27T08:14:34.523Z,6.07
2022-12-27T08:17:05.047Z,13.57
2022-12-27T08:19:32.163Z,6.82
2022-12-27T08:22:00.469Z,5.05
2022-12-27T08:24:27.441Z,6.18
2022-12-27T08:26:54.346Z,7.03
2022-12-27T08:29:21.244Z,5.30
2022-12-27T08:31:48.314Z,5.47
2022-12-27T08:34:15.428Z,6.43
2022-12-27T08:36:55.006Z,5.70
2022-12-27T08:39:24.546Z,6.13
2022-12-27T08:41:53.024Z,5.38
2022-12-27T08:44:20.056Z,4.07
2022-12-27T08:46:49.675Z,4.28
2022-12-27T08:49:16.672Z,3.25
2022-12-27T08:51:43.716Z,3.72
2022-12-27T08:54:10.733Z,3.20
2022-12-27T08:56:39.109Z,8.85
2022-12-27T08:59:06.173Z,3.22
2022-12-27T09:01:33.363Z,4.22
2022-12-27T09:04:00.401Z,3.92
2022-12-27T09:06:28.040Z,2.17
2022-12-27T09:08:56.124Z,3.03
2022-12-27T09:11:24.764Z,3.35
2022-12-27T09:13:53.684Z,3.45
2022-12-27T09:16:23.100Z,2.83
2022-12-27T09:18:54.148Z,3.58
2022-12-27T09:21:23.228Z,3.97
2022-12-27T09:23:51.044Z,4.85
2022-12-27T09:26:20.145Z,3.78
2022-12-27T09:28:47.390Z,4.43
2022-12-27T09:31:17.429Z,5.78
2022-12-27T09:33:45.368Z,4.03
2022-12-27T09:36:14.869Z,6.78
2022-12-27T09:38:43.013Z,3.72
2022-12-27T09:41:40.939Z,4.20
2022-12-27T09:44:10.803Z,3.20
2022-12-27T09:46:44.204Z,5.75
2022-12-27T09:49:13.271Z,4.28
2022-12-27T09:51:48.968Z,5.75
2022-12-27T09:54:20.904Z,3.08
2022-12-27T09:57:18.361Z,3.63
2022-12-27T09:59:42.807Z,2.80
2022-12-27T10:02:22.148Z,3.75
2022-12-27T10:05:19.199Z,2.30
2022-12-27T10:07:46.642Z,2.45
2022-12-27T10:10:20.329Z,3.10
2022-12-27T10:13:04.253Z,4.88
2022-12-27T10:15:40.889Z,5.38
2022-12-27T10:18:18.488Z,3.10
2022-12-27T10:20:58.524Z,3.97
2022-12-27T10:23:30.165Z,4.03
2022-12-27T10:25:59.764Z,3.85
2022-12-27T10:28:35.753Z,3.55
2022-12-27T10:31:04.458Z,4.88
2022-12-27T10:33:35.353Z,5.63
2022-12-27T10:36:09.281Z,4.18
2022-12-27T10:38:36.417Z,3.20
2022-12-27T10:41:17.447Z,4.05
2022-12-27T10:43:50.602Z,3.80
2022-12-27T10:46:20.983Z,7.28
2022-12-27T10:51:49.172Z,3.88
2022-12-27T10:54:21.130Z,5.70
2022-12-27T10:56:48.241Z,5.75
2022-12-27T10:59:18.350Z,3.75
2022-12-27T11:01:52.740Z,3.80
2022-12-27T11:04:22.715Z,7.75
2022-12-27T11:06:51.910Z,3.38
2022-12-27T11:09:26.181Z,5.93
2022-12-27T11:12:10.850Z,5.15
2022-12-27T11:14:38.070Z,4.60
2022-12-27T11:17:09.333Z,4.40
2022-12-27T11:19:40.150Z,2.60
2022-12-27T11:22:08.954Z,4.03
2022-12-27T11:24:44.528Z,2.95
2022-12-27T11:27:22.664Z,3.92
2022-12-27T11:29:51.611Z,4.55
2022-12-27T11:32:23.291Z,8.02
2022-12-27T11:34:54.209Z,4.75
2022-12-27T11:37:25.510Z,4.20
2022-12-27T11:39:55.321Z,4.93
2022-12-27T11:42:33.557Z,3.92
2022-12-27T11:45:07.704Z,6.15
2022-12-27T11:47:44.396Z,5.32
2022-12-27T11:50:41.159Z,3.13
2022-12-27T11:53:55.820Z,3.45
2022-12-27T11:56:26.530Z,6.28
2022-12-27T11:59:16.119Z,4.18
2022-12-27T12:02:07.095Z,11.98
2022-12-27T12:05:18.399Z,4.45
2022-12-27T12:08:00.286Z,6.25
2022-12-27T12:10:35.187Z,11.70
2022-12-27T12:13:18.671Z,5.35
2022-12-27T12:16:07.487Z,4.78
2022-12-27T12:18:53.716Z,3.67
2022-12-27T12:21:26.314Z,9.27
2022-12-27T12:24:30.592Z,7.38
2022-12-27T12:27:14.615Z,6.38
2022-12-27T12:30:12.790Z,6.43
2022-12-27T12:32:55.847Z,8.00
2022-12-27T12:35:36.934Z,6.45
2022-12-27T12:38:11.914Z,6.07
2022-12-27T12:41:14.218Z,7.28
2022-12-27T12:44:10.487Z,7.07
2022-12-27T12:46:42.233Z,6.20
2022-12-27T12:49:21.661Z,11.52
2022-12-27T12:52:05.198Z,8.00
2022-12-27T12:54:46.943Z,7.13
2022-12-27T12:57:31.155Z,8.48
2022-12-27T13:00:16.730Z,6.53
2022-12-27T13:05:33.222Z,7.07
2022-12-27T13:08:10.415Z,6.05
2022-12-27T13:11:07.202Z,7.18
2022-12-27T13:13:54.338Z,7.00
2022-12-27T13:16:31.223Z,5.75
2022-12-27T13:19:11.057Z,6.05
2022-12-27T13:21:53.689Z,11.35
2022-12-27T13:24:30.120Z,7.55
2022-12-27T13:27:05.568Z,7.35
2022-12-27T13:30:01.778Z,9.80
2022-12-27T13:32:50.042Z,6.22
2022-12-27T13:35:30.952Z,7.13
2022-12-27T13:38:13.635Z,9.20
2022-12-27T13:41:04.980Z,9.10
2022-12-27T13:43:51.161Z,7.85
2022-12-27T13:46:51.555Z,11.00
2022-12-27T13:49:49.694Z,7.93
2022-12-27T13:52:38.950Z,6.63
2022-12-27T13:55:30.280Z,12.07
2022-12-27T13:58:12.767Z,9.32
2022-12-27T14:00:45.828Z,9.48
2022-12-27T14:03:39.035Z,9.70
2022-12-27T14:06:29.956Z,10.57
2022-12-27T14:09:37.801Z,8.43
2022-12-27T14:12:21.106Z,14.73
2022-12-27T14:14:49.091Z,10.13
2022-12-27T14:17:25.909Z,17.00
2022-12-27T14:20:21.618Z,11.38
2022-12-27T14:23:12.014Z,7.40
2022-12-27T14:26:17.665Z,9.98
2022-12-27T14:29:20.055Z,12.82
2022-12-27T14:32:28.325Z,10.88
2022-12-27T14:35:26.613Z,13.60
2022-12-27T14:38:29.107Z,13.05
2022-12-27T14:41:24.176Z,11.23
2022-12-27T14:44:15.645Z,9.32
2022-12-27T14:46:59.650Z,10.68
2022-12-27T14:50:01.219Z,10.48
2022-12-27T14:52:59.710Z,9.38
2022-12-27T14:55:39.514Z,7.80
2022-12-27T14:58:20.715Z,10.25
2022-12-27T15:01:03.125Z,10.27
2022-12-27T15:04:00.305Z,9.55
2022-12-27T15:06:53.980Z,9.75
2022-12-27T15:09:31.561Z,10.40
2022-12-27T15:12:14.094Z,8.88
2022-12-27T15:14:58.162Z,7.68
2022-12-27T15:17:42.470Z,8.38
2022-12-27T15:20:27.383Z,8.32
2022-12-27T15:23:04.532Z,7.47
2022-12-27T15:25:47.232Z,10.20
2022-12-27T15:28:22.384Z,9.05
2022-12-27T15:30:55.192Z,6.70
2022-12-27T15:33:29.233Z,5.57
2022-12-27T15:36:02.677Z,6.75
2022-12-27T15:38:46.141Z,7.63
2022-12-27T15:41:48.241Z,6.50
2022-12-27T15:44:45.139Z,5.95
2022-12-27T15:47:34.977Z,5.57
2022-12-27T15:50:23.964Z,6.43
2022-12-27T15:53:32.579Z,6.43
2022-12-27T15:56:33.599Z,5.57
2022-12-27T15:59:39.602Z,4.57
2022-12-27T16:04:56.806Z,6.63
2022-12-27T16:07:39.425Z,4.35
2022-12-27T16:10:43.138Z,6.28
2022-12-27T16:13:21.219Z,7.18
2022-12-27T16:15:52.898Z,9.45
2022-12-27T16:18:50.247Z,3.80
2022-12-27T16:21:21.342Z,4.63
2022-12-27T16:23:53.316Z,4.60
2022-12-27T16:26:23.931Z,4.38
2022-12-27T16:28:58.166Z,5.18
2022-12-27T16:31:29.330Z,7.20
2022-12-27T16:33:57.897Z,4.35
2022-12-27T16:36:33.198Z,6.03
2022-12-27T16:42:09.144Z,4.43
2022-12-27T16:45:02.918Z,4.88
2022-12-27T16:47:48.236Z,5.47
2022-12-27T16:50:34.751Z,8.02
2022-12-27T16:53:16.554Z,5.63
2022-12-27T16:56:08.336Z,7.57
2022-12-27T16:58:36.848Z,8.23
2022-12-27T17:01:06.844Z,5.82
2022-12-27T17:03:49.212Z,6.97
2022-12-27T17:06:55.260Z,9.60
2022-12-27T17:09:42.191Z,10.82
2022-12-27T17:12:18.552Z,94.40
2022-12-27T17:14:46.374Z,15.38
2022-12-27T17:17:18.755Z,22.80
2022-12-27T17:19:51.975Z,25.40
2022-12-27T17:22:20.476Z,51.80
2022-12-27T17:24:49.319Z,65.10
2022-12-27T17:27:25.144Z,12.32
2022-12-27T17:30:04.664Z,20.88
2022-12-27T17:33:02.775Z,23.02
2022-12-27T17:35:38.410Z,12.85
2022-12-27T17:38:17.924Z,7.28
2022-12-27T17:40:53.898Z,6.47
2022-12-27T17:43:51.143Z,5.10
2022-12-27T17:46:30.157Z,5.70
2022-12-27T17:48:58.596Z,5.40
2022-12-27T17:51:28.496Z,5.75
2022-12-27T17:54:15.436Z,7.57
2022-12-27T17:57:02.971Z,5.70
2022-12-27T17:59:31.468Z,5.22
2022-12-27T18:02:06.462Z,5.90
2022-12-27T18:04:36.602Z,5.05
2022-12-27T18:07:07.848Z,5.13
2022-12-27T18:09:39.674Z,6.25
2022-12-27T18:12:12.471Z,5.53
2022-12-27T18:14:39.756Z,5.57
2022-12-27T18:17:06.969Z,4.85
2022-12-27T18:19:33.903Z,6.60
2022-12-27T18:22:02.220Z,5.38
2022-12-27T18:24:32.373Z,4.70
2022-12-27T18:27:04.658Z,5.72
2022-12-27T18:29:32.026Z,7.10
2022-12-27T18:32:03.536Z,6.55
2022-12-27T18:34:37.523Z,6.63
2022-12-27T18:37:07.845Z,7.32
2022-12-27T18:39:40.018Z,9.30
2022-12-27T18:42:17.079Z,7.85
2022-12-27T18:44:46.939Z,7.38
2022-12-27T18:47:19.563Z,14.98
2022-12-27T18:49:51.413Z,18.17
2022-12-27T18:52:23.724Z,8.07
2022-12-27T18:54:52.877Z,8.75
2022-12-27T18:57:35.744Z,9.35
2022-12-27T19:00:15.208Z,11.65
2022-12-27T19:02:45.765Z,8.10
2022-12-27T19:05:25.419Z,9.95
2022-12-27T19:07:55.918Z,6.47
2022-12-27T19:10:27.035Z,6.03
2022-12-27T19:12:55.565Z,8.02
2022-12-27T19:15:27.997Z,8.57
2022-12-27T19:17:58.875Z,6.43
2022-12-27T19:20:29.735Z,5.53
2022-12-27T19:22:59.338Z,7.10
2022-12-27T19:25:29.584Z,6.28
2022-12-27T19:28:01.296Z,5.50
2022-12-27T19:30:37.484Z,3.80
2022-12-27T19:33:09.635Z,4.68
2022-12-27T19:35:37.093Z,2.58
2022-12-27T19:38:04.330Z,2.33
2022-12-27T19:40:32.732Z,4.40
2022-12-27T19:42:59.913Z,4.03
2022-12-27T19:45:30.026Z,3.40
2022-12-27T19:47:57.602Z,3.10
2022-12-27T19:50:24.641Z,3.85
2022-12-27T19:52:52.398Z,4.05
2022-12-27T19:55:25.060Z,3.10
2022-12-27T19:57:53.500Z,3.42
2022-12-27T20:00:20.826Z,3.28
2022-12-27T20:02:48.287Z,3.70
2022-12-27T20:05:15.471Z,3.88
2022-12-27T20:07:42.628Z,3.22
2022-12-27T20:10:13.671Z,3.25
2022-12-27T20:12:41.456Z,4.85
2022-12-27T20:15:13.564Z,3.28
2022-12-27T20:17:44.779Z,4.00
2022-12-27T20:20:12.642Z,4.75
2022-12-27T20:22:39.684Z,4.13
2022-12-27T20:25:08.068Z,3.30
2022-12-27T20:27:35.058Z,4.20
2022-12-27T20:30:05.229Z,4.65
2022-12-27T20:32:33.818Z,3.05
2022-12-27T20:35:00.741Z,4.63
2022-12-27T20:37:27.762Z,3.75
2022-12-27T20:39:54.796Z,4.18
2022-12-27T20:42:23.817Z,5.72
2022-12-27T20:44:50.761Z,3.33
2022-12-27T20:47:17.714Z,3.45
2022-12-27T20:49:46.143Z,4.22
2022-12-27T20:52:13.101Z,5.63
2022-12-27T20:54:40.347Z,4.38
2022-12-27T20:57:07.383Z,3.60
2022-12-27T20:59:34.404Z,4.47
2022-12-27T21:02:01.654Z,4.03
2022-12-27T21:04:28.815Z,5.82
2022-12-27T21:06:57.263Z,7.18
2022-12-27T21:09:24.264Z,7.97
2022-12-27T21:11:53.086Z,6.70
2022-12-27T21:14:20.396Z,4.45
2022-12-27T21:16:48.076Z,3.50
2022-12-27T21:19:15.046Z,5.22
2022-12-27T21:21:42.108Z,3.65
2022-12-27T21:24:12.246Z,2.95
2022-12-27T21:26:39.676Z,4.88
2022-12-27T21:29:09.353Z,2.88
2022-12-27T21:31:37.123Z,3.45
2022-12-27T21:34:05.401Z,3.22
2022-12-27T21:36:34.256Z,4.00
2022-12-27T21:39:04.231Z,4.75
2022-12-27T21:41:34.127Z,3.80
2022-12-27T21:44:04.752Z,5.32
2022-12-27T21:46:33.991Z,3.38
2022-12-27T21:49:02.789Z,3.63
2022-12-27T21:51:32.058Z,4.50
2022-12-27T21:53:59.585Z,4.20
2022-12-27T21:56:27.112Z,3.72
2022-12-27T21:58:55.835Z,6.63
2022-12-27T22:01:24.753Z,6.55
2022-12-27T22:03:53.480Z,4.13
2022-12-27T22:06:24.188Z,4.72
2022-12-27T22:08:53.826Z,6.75
2022-12-27T22:11:22.415Z,3.63
2022-12-27T22:13:50.243Z,4.47
2022-12-27T22:16:20.373Z,6.03
2022-12-27T22:18:48.283Z,4.53
2022-12-27T22:21:19.065Z,3.65
2022-12-27T22:23:47.670Z,5.10
2022-12-27T22:26:17.679Z,5.75
2022-12-27T22:28:45.113Z,6.40
2022-12-27T22:31:14.561Z,3.80
2022-12-27T22:33:43.219Z,4.60
2022-12-27T22:36:12.425Z,4.35
2022-12-27T22:38:40.718Z,4.30
2022-12-27T22:41:11.064Z,3.70
2022-12-27T22:43:38.399Z,3.85
2022-12-27T22:46:06.874Z,6.32
2022-12-27T22:48:33.958Z,6.22
2022-12-27T22:51:10.913Z,10.80
2022-12-27T22:53:38.214Z,4.20
2022-12-27T22:56:05.297Z,5.43
2022-12-27T22:58:32.410Z,3.78
2022-12-27T23:01:00.622Z,5.75
2022-12-27T23:03:27.646Z,6.07
2022-12-27T23:05:59.217Z,5.72
2022-12-27T23:08:27.662Z,4.72
2022-12-27T23:10:54.715Z,7.35
2022-12-27T23:13:24.063Z,12.43
2022-12-27T23:15:56.723Z,5.18
2022-12-27T23:18:23.785Z,5.03
2022-12-27T23:21:21.250Z,4.60
2022-12-27T23:23:39.046Z,4.95
2022-12-27T23:26:09.199Z,4.18
2022-12-27T23:28:37.086Z,5.40
2022-12-27T23:31:04.301Z,5.13
2022-12-27T23:33:31.912Z,6.50
2022-12-27T23:35:59.223Z,7.32
2022-12-27T23:38:26.174Z,5.45
2022-12-27T23:40:55.622Z,4.85
2022-12-27T23:43:51.041Z,9.93
2022-12-27T23:46:13.480Z,7.43
2022-12-27T23:48:40.840Z,3.83
2022-12-27T23:51:08.377Z,3.40
2022-12-27T23:53:35.758Z,3.90
2022-12-27T23:56:07.375Z,4.18
2022-12-27T23:58:35.715Z,6.50
